createdAt,value
2019-05-19T00:01:49.878Z,19.00
2019-05-19T00:04:21.474Z,19.40
2019-05-19T00:06:53.068Z,22.33
2019-05-19T00:09:25.954Z,19.93
2019-05-19T00:11:57.450Z,21.03
2019-05-19T00:14:29.020Z,21.73
2019-05-19T00:17:00.494Z,20.53
2019-05-19T00:19:32.362Z,25.20
2019-05-19T00:22:03.939Z,19.07
2019-05-19T00:24:35.480Z,20.07
2019-05-19T00:27:07.079Z,26.07
2019-05-19T00:29:38.660Z,20.90
2019-05-19T00:32:10.613Z,23.83
2019-05-19T00:34:42.222Z,22.73
2019-05-19T00:37:13.746Z,20.73
2019-05-19T00:39:45.574Z,22.00
2019-05-19T00:42:18.202Z,23.23
2019-05-19T00:44:49.877Z,22.37
2019-05-19T00:47:21.363Z,19.87
2019-05-19T00:49:52.846Z,20.73
2019-05-19T00:52:24.774Z,20.97
2019-05-19T00:54:56.382Z,17.53
2019-05-19T00:57:29.156Z,26.30
2019-05-19T01:00:01.898Z,25.23
2019-05-19T01:02:35.234Z,23.50
2019-05-19T01:05:08.442Z,26.97
2019-05-19T01:07:39.982Z,21.20
2019-05-19T01:10:11.905Z,23.07
2019-05-19T01:12:43.472Z,21.07
2019-05-19T01:15:16.042Z,23.97
2019-05-19T01:17:47.688Z,19.23
2019-05-19T01:20:20.416Z,20.90
2019-05-19T01:22:51.938Z,18.80
2019-05-19T01:25:23.842Z,19.60
2019-05-19T01:27:55.990Z,18.70
2019-05-19T01:30:27.617Z,20.87
2019-05-19T01:32:59.135Z,25.10
2019-05-19T01:35:30.635Z,20.47
2019-05-19T01:38:02.115Z,21.03
2019-05-19T01:40:33.647Z,21.67
2019-05-19T01:43:05.180Z,19.17
2019-05-19T01:45:37.069Z,16.40
2019-05-19T01:48:09.710Z,23.23
2019-05-19T01:50:41.270Z,17.83
2019-05-19T01:53:12.730Z,19.50
2019-05-19T01:55:44.206Z,20.27
2019-05-19T01:58:15.755Z,18.73
2019-05-19T02:00:47.273Z,20.47
2019-05-19T02:03:18.732Z,18.70
2019-05-19T02:05:50.292Z,21.40
2019-05-19T02:08:21.818Z,19.80
2019-05-19T02:10:53.291Z,21.10
2019-05-19T02:13:25.247Z,20.80
2019-05-19T02:15:56.724Z,19.10
2019-05-19T02:18:28.298Z,20.17
2019-05-19T02:20:59.855Z,20.80
2019-05-19T02:23:31.544Z,19.80
2019-05-19T02:26:03.060Z,17.93
2019-05-19T02:28:34.624Z,19.70
2019-05-19T02:31:06.403Z,21.73
2019-05-19T02:33:37.884Z,20.40
2019-05-19T02:36:09.479Z,21.37
2019-05-19T02:38:41.509Z,19.33
2019-05-19T02:41:15.658Z,19.07
2019-05-19T02:43:49.854Z,18.20
2019-05-19T02:46:22.142Z,21.00
2019-05-19T02:48:55.388Z,32.17
2019-05-19T02:51:31.326Z,27.23
2019-05-19T02:54:04.807Z,25.67
2019-05-19T02:56:37.496Z,25.77
2019-05-19T02:59:09.108Z,23.40
2019-05-19T03:01:59.502Z,24.13
2019-05-19T03:04:31.475Z,28.77
2019-05-19T03:07:04.067Z,26.57
2019-05-19T03:09:35.567Z,26.33
2019-05-19T03:12:08.039Z,29.20
2019-05-19T03:14:39.561Z,22.93
2019-05-19T03:17:11.159Z,20.27
2019-05-19T03:19:42.767Z,23.10
2019-05-19T03:22:14.190Z,31.57
2019-05-19T03:24:46.319Z,23.13
2019-05-19T03:27:18.203Z,22.20
2019-05-19T03:29:54.496Z,55.03
2019-05-19T03:32:31.988Z,58.73
2019-05-19T03:35:03.433Z,29.03
2019-05-19T03:37:35.079Z,27.80
2019-05-19T03:40:20.245Z,24.13
2019-05-19T03:42:53.273Z,23.20
2019-05-19T03:45:24.742Z,20.20
2019-05-19T03:47:56.255Z,20.50
2019-05-19T03:50:27.777Z,18.37
2019-05-19T03:52:59.338Z,20.00
2019-05-19T03:55:30.890Z,19.13
2019-05-19T03:58:02.458Z,19.67
2019-05-19T04:00:33.915Z,21.23
2019-05-19T04:03:05.878Z,21.83
2019-05-19T04:05:37.323Z,21.20
2019-05-19T04:08:08.814Z,31.40
2019-05-19T04:10:40.375Z,23.93
2019-05-19T04:13:12.084Z,21.93
2019-05-19T04:15:43.545Z,26.60
2019-05-19T04:18:15.092Z,23.50
2019-05-19T04:20:46.927Z,22.90
2019-05-19T04:23:18.399Z,23.80
2019-05-19T04:25:49.883Z,21.60
2019-05-19T04:28:21.332Z,20.10
2019-05-19T04:30:52.782Z,23.43
2019-05-19T04:33:24.275Z,32.93
2019-05-19T04:35:57.600Z,24.20
2019-05-19T04:38:28.892Z,24.63
2019-05-19T04:41:00.383Z,26.30
2019-05-19T04:43:31.847Z,27.77
2019-05-19T04:46:03.367Z,24.03
2019-05-19T04:48:34.836Z,24.50
2019-05-19T04:51:06.346Z,23.17
2019-05-19T04:53:37.803Z,22.17
2019-05-19T04:56:09.301Z,23.73
2019-05-19T04:58:40.907Z,26.20
2019-05-19T05:01:12.454Z,25.53
2019-05-19T05:03:43.903Z,25.77
2019-05-19T05:06:15.380Z,25.87
2019-05-19T05:08:47.166Z,24.37
2019-05-19T05:11:18.656Z,21.67
2019-05-19T05:13:50.466Z,25.07
2019-05-19T05:16:21.934Z,23.80
2019-05-19T05:18:53.518Z,26.17
2019-05-19T05:21:24.966Z,25.53
2019-05-19T05:23:56.470Z,28.00
2019-05-19T05:26:28.039Z,20.07
2019-05-19T05:28:59.550Z,20.57
2019-05-19T05:31:31.569Z,20.13
2019-05-19T05:34:09.469Z,22.70
2019-05-19T05:36:41.042Z,24.33
2019-05-19T05:39:12.637Z,22.23
2019-05-19T05:41:44.122Z,21.13
2019-05-19T05:44:15.576Z,17.77
2019-05-19T05:46:47.082Z,22.53
2019-05-19T05:49:18.707Z,23.00
2019-05-19T05:51:50.250Z,18.47
2019-05-19T05:54:21.766Z,22.37
2019-05-19T05:56:53.219Z,25.13
2019-05-19T05:59:24.698Z,25.37
2019-05-19T06:01:56.228Z,24.27
2019-05-19T06:04:27.718Z,34.20
2019-05-19T06:07:00.587Z,30.27
2019-05-19T06:09:32.123Z,24.90
2019-05-19T06:12:03.631Z,24.17
2019-05-19T06:14:35.149Z,24.73
2019-05-19T06:17:06.786Z,26.47
2019-05-19T06:19:38.303Z,22.07
2019-05-19T06:22:09.857Z,27.43
2019-05-19T06:24:41.270Z,29.10
2019-05-19T06:27:13.950Z,21.17
2019-05-19T06:29:45.406Z,22.57
2019-05-19T06:32:24.094Z,23.33
2019-05-19T06:34:55.769Z,23.47
2019-05-19T06:37:27.268Z,22.27
2019-05-19T06:40:00.049Z,25.17
2019-05-19T06:42:31.601Z,26.40
2019-05-19T06:45:03.490Z,27.37
2019-05-19T06:47:36.675Z,24.07
2019-05-19T06:50:09.063Z,26.70
2019-05-19T06:52:40.635Z,17.77
2019-05-19T06:55:12.918Z,20.60
2019-05-19T06:57:44.406Z,23.30
2019-05-19T07:00:16.194Z,25.80
2019-05-19T07:02:47.763Z,22.97
2019-05-19T07:05:19.421Z,25.73
2019-05-19T07:07:50.883Z,25.20
2019-05-19T07:10:22.386Z,26.17
2019-05-19T07:12:54.440Z,19.97
2019-05-19T07:15:25.971Z,20.70
2019-05-19T07:17:57.642Z,26.00
2019-05-19T07:20:33.079Z,24.57
2019-05-19T07:23:08.231Z,23.43
2019-05-19T07:25:39.832Z,21.70
2019-05-19T07:28:11.438Z,21.77
2019-05-19T07:30:42.918Z,22.47
2019-05-19T07:33:14.450Z,22.17
2019-05-19T07:35:45.961Z,22.83
2019-05-19T07:38:17.522Z,22.03
2019-05-19T07:40:49.133Z,23.63
2019-05-19T07:43:21.184Z,21.13
2019-05-19T07:45:52.738Z,19.43
2019-05-19T07:48:24.330Z,18.37
2019-05-19T07:50:55.862Z,16.43
2019-05-19T07:53:27.416Z,19.90
2019-05-19T07:55:58.960Z,32.30
2019-05-19T07:58:30.515Z,21.33
2019-05-19T08:01:02.091Z,15.30
2019-05-19T08:03:33.655Z,14.43
2019-05-19T08:06:05.271Z,11.47
2019-05-19T08:08:37.189Z,12.00
2019-05-19T08:11:10.117Z,14.77
2019-05-19T08:13:41.732Z,11.73
2019-05-19T08:16:13.437Z,9.53
2019-05-19T08:18:45.037Z,5.73
2019-05-19T08:21:16.771Z,7.00
2019-05-19T08:23:59.785Z,4.80
2019-05-19T08:26:21.651Z,6.10
2019-05-19T08:28:53.301Z,7.57
2019-05-19T08:31:24.877Z,7.60
2019-05-19T08:33:56.606Z,6.23
2019-05-19T08:36:28.698Z,6.10
2019-05-19T08:39:00.278Z,6.17
2019-05-19T08:41:31.960Z,6.40
2019-05-19T08:44:04.056Z,5.33
2019-05-19T08:46:35.897Z,4.77
2019-05-19T08:49:07.577Z,5.17
2019-05-19T08:51:39.324Z,5.87
2019-05-19T08:54:15.132Z,6.97
2019-05-19T08:56:44.284Z,4.67
2019-05-19T08:59:15.889Z,4.83
2019-05-19T09:01:47.547Z,5.93
2019-05-19T09:04:19.208Z,6.57
2019-05-19T09:06:52.374Z,4.70
2019-05-19T09:09:24.048Z,4.37
2019-05-19T09:11:55.733Z,5.57
2019-05-19T09:14:27.303Z,4.43
2019-05-19T09:16:58.938Z,10.73
2019-05-19T09:19:31.478Z,10.00
2019-05-19T09:22:02.990Z,5.47
2019-05-19T09:24:37.284Z,8.93
2019-05-19T09:27:07.747Z,7.90
2019-05-19T09:29:39.206Z,8.10
2019-05-19T09:32:11.079Z,12.00
2019-05-19T09:34:42.700Z,13.70
2019-05-19T09:37:14.340Z,12.83
2019-05-19T09:39:45.907Z,15.27
2019-05-19T09:42:17.589Z,18.20
2019-05-19T09:44:49.242Z,14.27
2019-05-19T09:47:21.544Z,17.37
2019-05-19T09:49:53.089Z,17.10
2019-05-19T09:52:24.692Z,16.73
2019-05-19T09:54:56.304Z,18.27
2019-05-19T09:57:27.928Z,21.83
2019-05-19T09:59:59.560Z,17.77
2019-05-19T10:02:31.193Z,17.27
2019-05-19T10:05:09.893Z,18.87
2019-05-19T10:07:41.673Z,21.70
2019-05-19T10:10:16.998Z,18.33
2019-05-19T10:12:48.612Z,21.47
2019-05-19T10:15:20.118Z,18.77
2019-05-19T10:17:51.687Z,22.67
2019-05-19T10:20:23.284Z,23.20
2019-05-19T10:22:55.243Z,23.53
2019-05-19T10:25:26.820Z,22.17
2019-05-19T10:27:58.579Z,25.50
2019-05-19T10:30:30.118Z,23.40
2019-05-19T10:33:02.376Z,24.92
2019-05-19T10:35:33.977Z,20.97
2019-05-19T10:38:06.197Z,22.85
2019-05-19T10:40:37.811Z,21.23
2019-05-19T10:43:10.078Z,23.10
2019-05-19T10:45:41.831Z,24.98
2019-05-19T10:48:14.123Z,22.95
2019-05-19T10:50:46.322Z,23.47
2019-05-19T10:53:18.452Z,19.92
2019-05-19T10:55:51.935Z,22.77
2019-05-19T10:58:24.390Z,23.00
2019-05-19T11:00:56.458Z,21.73
2019-05-19T11:03:28.575Z,19.07
2019-05-19T11:06:00.752Z,20.08
2019-05-19T11:08:33.022Z,18.57
2019-05-19T11:11:05.253Z,17.35
2019-05-19T11:13:38.263Z,19.25
2019-05-19T11:16:10.360Z,16.65
2019-05-19T11:18:42.646Z,17.50
2019-05-19T11:21:14.734Z,16.07
2019-05-19T11:23:47.091Z,16.93
2019-05-19T11:26:19.171Z,14.70
2019-05-19T11:28:51.271Z,14.53
2019-05-19T11:31:23.735Z,17.32
2019-05-19T11:33:55.787Z,14.38
2019-05-19T11:36:27.875Z,13.13
2019-05-19T11:38:59.956Z,15.05
2019-05-19T11:41:32.049Z,13.40
2019-05-19T11:44:04.745Z,13.53
2019-05-19T11:46:36.876Z,14.40
2019-05-19T11:49:08.938Z,14.38
2019-05-19T11:51:41.042Z,12.65
2019-05-19T11:54:13.107Z,11.88
2019-05-19T11:56:45.199Z,13.05
2019-05-19T11:59:17.262Z,13.68
2019-05-19T12:01:49.347Z,12.63
2019-05-19T12:04:21.558Z,12.78
2019-05-19T12:06:53.815Z,12.55
2019-05-19T12:09:26.149Z,10.35
2019-05-19T12:11:58.390Z,10.72
2019-05-19T12:14:31.800Z,12.50
2019-05-19T12:17:03.986Z,11.48
2019-05-19T12:19:36.128Z,13.30
2019-05-19T12:22:08.303Z,12.20
2019-05-19T12:24:40.457Z,12.33
2019-05-19T12:27:12.740Z,12.50
2019-05-19T12:29:44.867Z,14.60
2019-05-19T12:32:16.988Z,10.82
2019-05-19T12:34:49.131Z,11.70
2019-05-19T12:37:21.214Z,12.03
2019-05-19T12:39:53.279Z,10.32
2019-05-19T12:42:25.370Z,11.28
2019-05-19T12:44:57.466Z,9.60
2019-05-19T12:47:29.530Z,9.00
2019-05-19T12:50:01.832Z,10.13
2019-05-19T12:52:34.280Z,9.30
2019-05-19T12:55:07.272Z,8.90
2019-05-19T12:57:39.393Z,7.08
2019-05-19T13:00:11.502Z,7.58
2019-05-19T13:02:43.670Z,8.83
2019-05-19T13:05:15.756Z,8.00
2019-05-19T13:07:47.812Z,7.28
2019-05-19T13:10:20.195Z,8.13
2019-05-19T13:12:52.254Z,8.43
2019-05-19T13:15:24.280Z,7.42
2019-05-19T13:17:56.350Z,6.90
2019-05-19T13:20:28.362Z,7.20
2019-05-19T13:23:00.499Z,6.40
2019-05-19T13:25:32.562Z,8.83
2019-05-19T13:28:04.699Z,7.60
2019-05-19T13:30:36.772Z,5.17
2019-05-19T13:33:08.872Z,6.87
2019-05-19T13:35:41.339Z,6.78
2019-05-19T13:38:13.495Z,9.73
2019-05-19T13:40:45.549Z,7.70
2019-05-19T13:43:17.611Z,7.17
2019-05-19T13:45:49.708Z,5.97
2019-05-19T13:48:22.236Z,7.45
2019-05-19T13:50:54.378Z,7.85
2019-05-19T13:53:26.434Z,8.83
2019-05-19T13:55:58.546Z,10.03
2019-05-19T13:58:30.655Z,8.40
2019-05-19T14:01:02.872Z,13.25
2019-05-19T14:03:35.937Z,11.75
2019-05-19T14:06:08.069Z,15.93
2019-05-19T14:08:40.166Z,20.43
2019-05-19T14:11:12.257Z,21.55
2019-05-19T14:13:44.360Z,16.32
2019-05-19T14:16:16.400Z,11.70
2019-05-19T14:18:49.885Z,22.05
2019-05-19T14:21:22.069Z,16.37
2019-05-19T14:23:55.005Z,15.13
2019-05-19T14:26:27.039Z,9.33
2019-05-19T14:28:59.484Z,8.70
2019-05-19T14:31:31.620Z,19.12
2019-05-19T14:34:03.768Z,23.70
2019-05-19T14:36:36.186Z,21.00
2019-05-19T14:39:08.375Z,21.60
2019-05-19T14:41:45.515Z,31.87
2019-05-19T14:44:17.598Z,23.60
2019-05-19T14:46:49.721Z,18.05
2019-05-19T14:49:21.796Z,23.75
2019-05-19T14:51:53.917Z,21.85
2019-05-19T14:54:26.043Z,19.00
2019-05-19T14:56:58.173Z,13.43
2019-05-19T14:59:30.454Z,15.25
2019-05-19T15:02:03.489Z,10.23
2019-05-19T15:04:35.583Z,12.18
2019-05-19T15:07:07.715Z,8.95
2019-05-19T15:09:39.838Z,9.55
2019-05-19T15:12:11.998Z,15.18
2019-05-19T15:14:44.274Z,12.85
2019-05-19T15:17:16.389Z,14.35
2019-05-19T15:19:48.524Z,16.82
2019-05-19T15:22:20.565Z,8.55
2019-05-19T15:24:52.850Z,8.15
2019-05-19T15:27:24.934Z,8.70
2019-05-19T15:30:11.472Z,20.25
2019-05-19T15:32:30.656Z,13.95
2019-05-19T15:35:02.733Z,7.80
2019-05-19T15:37:34.801Z,14.80
2019-05-19T15:40:08.377Z,10.95
2019-05-19T15:42:40.649Z,7.25
2019-05-19T15:45:12.938Z,6.12
2019-05-19T15:47:44.974Z,8.75
2019-05-19T15:50:17.985Z,7.92
2019-05-19T15:52:50.047Z,3.90
2019-05-19T15:55:22.150Z,6.10
2019-05-19T15:57:55.403Z,3.98
2019-05-19T16:00:27.501Z,12.95
2019-05-19T16:02:59.718Z,3.47
2019-05-19T16:05:31.883Z,3.42
2019-05-19T16:08:04.005Z,3.05
2019-05-19T16:10:36.082Z,4.05
2019-05-19T16:13:08.291Z,3.50
2019-05-19T16:15:40.338Z,4.53
2019-05-19T16:18:12.498Z,3.12
2019-05-19T16:20:44.520Z,5.55
2019-05-19T16:23:16.597Z,3.22
2019-05-19T16:25:48.618Z,4.45
2019-05-19T16:28:30.401Z,3.33
2019-05-19T16:30:54.380Z,6.87
2019-05-19T16:33:26.515Z,5.85
2019-05-19T16:35:58.639Z,4.55
2019-05-19T16:38:30.761Z,4.87
2019-05-19T16:41:02.777Z,5.35
2019-05-19T16:43:34.943Z,3.55
2019-05-19T16:46:07.033Z,4.78
2019-05-19T16:48:39.179Z,5.00
2019-05-19T16:51:11.271Z,4.20
2019-05-19T16:53:44.971Z,6.67
2019-05-19T16:56:17.398Z,6.35
2019-05-19T16:58:49.467Z,4.80
2019-05-19T17:01:21.479Z,5.17
2019-05-19T17:03:53.562Z,5.90
2019-05-19T17:06:25.970Z,6.17
2019-05-19T17:08:58.086Z,5.70
2019-05-19T17:11:30.199Z,5.92
2019-05-19T17:14:02.374Z,5.50
2019-05-19T17:16:34.539Z,7.17
2019-05-19T17:19:06.678Z,6.33
2019-05-19T17:21:38.650Z,4.65
2019-05-19T17:24:11.095Z,6.37
2019-05-19T17:26:43.130Z,4.87
2019-05-19T17:29:15.225Z,6.10
2019-05-19T17:31:47.525Z,4.75
2019-05-19T17:34:19.571Z,5.30
2019-05-19T17:36:51.676Z,5.03
2019-05-19T17:39:24.087Z,4.50
2019-05-19T17:41:56.094Z,6.60
2019-05-19T17:44:28.144Z,5.92
2019-05-19T17:47:00.171Z,5.55
2019-05-19T17:49:32.352Z,6.45
2019-05-19T17:52:04.657Z,4.08
2019-05-19T17:54:36.722Z,5.53
2019-05-19T17:57:09.012Z,11.97
2019-05-19T17:59:44.543Z,5.85
2019-05-19T18:02:16.614Z,6.67
2019-05-19T18:04:48.803Z,5.10
2019-05-19T18:07:20.853Z,10.18
2019-05-19T18:09:53.029Z,6.75
2019-05-19T18:12:25.131Z,6.92
2019-05-19T18:14:57.166Z,6.17
2019-05-19T18:17:29.199Z,8.38
2019-05-19T18:20:01.251Z,8.45
2019-05-19T18:22:33.382Z,8.55
2019-05-19T18:25:06.074Z,6.60
2019-05-19T18:27:38.727Z,9.20
2019-05-19T18:30:13.238Z,8.65
2019-05-19T18:32:45.430Z,8.20
2019-05-19T18:35:17.688Z,5.62
2019-05-19T18:37:49.380Z,7.27
2019-05-19T18:40:21.183Z,10.20
2019-05-19T18:42:53.305Z,8.95
2019-05-19T18:45:26.069Z,8.97
2019-05-19T18:47:58.026Z,8.27
2019-05-19T18:50:30.712Z,10.63
2019-05-19T18:53:02.479Z,14.80
2019-05-19T18:55:34.843Z,10.98
2019-05-19T18:58:06.459Z,7.53
2019-05-19T19:00:39.109Z,9.33
2019-05-19T19:03:11.569Z,9.47
2019-05-19T19:05:43.191Z,9.53
2019-05-19T19:08:14.807Z,10.67
2019-05-19T19:10:46.455Z,6.57
2019-05-19T19:13:18.292Z,10.67
2019-05-19T19:15:50.128Z,7.53
2019-05-19T19:18:21.731Z,7.57
2019-05-19T19:20:53.354Z,6.87
2019-05-19T19:23:24.979Z,6.13
2019-05-19T19:25:56.632Z,7.73
2019-05-19T19:28:28.403Z,5.83
2019-05-19T19:31:00.433Z,5.70
2019-05-19T19:33:32.067Z,5.37
2019-05-19T19:36:03.802Z,4.10
2019-05-19T19:38:35.479Z,5.53
2019-05-19T19:41:09.512Z,6.37
2019-05-19T19:43:42.832Z,14.23
2019-05-19T19:46:14.609Z,6.60
2019-05-19T19:48:46.361Z,5.63
2019-05-19T19:51:18.147Z,5.00
2019-05-19T19:53:49.741Z,8.50
2019-05-19T19:56:22.494Z,6.63
2019-05-19T19:58:54.076Z,5.37
2019-05-19T20:01:25.620Z,7.33
2019-05-19T20:03:57.215Z,12.23
2019-05-19T20:06:28.813Z,11.17
2019-05-19T20:09:00.341Z,5.03
2019-05-19T20:11:31.929Z,6.67
2019-05-19T20:14:03.689Z,4.90
2019-05-19T20:16:35.194Z,7.57
2019-05-19T20:19:06.685Z,5.30
2019-05-19T20:21:38.182Z,8.97
2019-05-19T20:24:09.650Z,7.23
2019-05-19T20:26:41.539Z,8.07
2019-05-19T20:29:14.199Z,6.33
2019-05-19T20:31:45.777Z,8.10
2019-05-19T20:34:17.279Z,14.57
2019-05-19T20:36:48.832Z,21.80
2019-05-19T20:39:20.644Z,12.43
2019-05-19T20:41:52.166Z,9.57
2019-05-19T20:44:23.637Z,7.47
2019-05-19T20:46:55.133Z,8.47
2019-05-19T20:49:26.589Z,6.80
2019-05-19T20:51:58.176Z,6.60
2019-05-19T20:54:29.630Z,7.77
2019-05-19T20:57:01.150Z,11.83
2019-05-19T20:59:32.947Z,7.50
2019-05-19T21:02:04.478Z,10.40
2019-05-19T21:04:35.941Z,7.00
2019-05-19T21:07:07.981Z,8.17
2019-05-19T21:09:39.948Z,14.00
2019-05-19T21:12:11.596Z,20.63
2019-05-19T21:14:43.141Z,17.53
2019-05-19T21:17:14.695Z,7.33
2019-05-19T21:19:47.814Z,6.57
2019-05-19T21:22:19.387Z,4.07
2019-05-19T21:24:50.927Z,6.47
2019-05-19T21:27:22.503Z,4.27
2019-05-19T21:29:54.026Z,3.30
2019-05-19T21:32:25.578Z,3.70
2019-05-19T21:34:57.042Z,2.80
2019-05-19T21:37:28.527Z,2.50
2019-05-19T21:40:00.352Z,4.77
2019-05-19T21:42:31.867Z,3.00
2019-05-19T21:45:03.341Z,3.17
2019-05-19T21:47:35.785Z,1.90
2019-05-19T21:50:08.334Z,2.87
2019-05-19T21:52:39.847Z,3.40
2019-05-19T21:55:11.492Z,3.03
2019-05-19T21:57:42.956Z,3.73
2019-05-19T22:00:15.693Z,3.00
2019-05-19T22:02:48.774Z,2.60
2019-05-19T22:05:20.258Z,4.87
2019-05-19T22:08:08.799Z,2.60
2019-05-19T22:10:40.262Z,3.93
2019-05-19T22:13:11.750Z,4.63
2019-05-19T22:15:43.266Z,2.87
2019-05-19T22:18:14.870Z,3.87
2019-05-19T22:20:46.781Z,2.87
2019-05-19T22:23:18.441Z,3.20
2019-05-19T22:25:50.031Z,6.33
2019-05-19T22:28:21.547Z,5.77
2019-05-19T22:30:53.054Z,6.17
2019-05-19T22:33:25.862Z,6.73
2019-05-19T22:35:57.358Z,5.07
2019-05-19T22:38:30.108Z,7.03
2019-05-19T22:41:01.637Z,5.30
2019-05-19T22:43:33.340Z,7.83
2019-05-19T22:46:04.792Z,4.57
2019-05-19T22:48:36.295Z,5.93
2019-05-19T22:51:08.942Z,4.30
2019-05-19T22:53:40.502Z,3.93
2019-05-19T22:56:12.106Z,7.13
2019-05-19T22:58:43.598Z,5.27
2019-05-19T23:01:30.952Z,5.77
2019-05-19T23:04:02.507Z,4.80
2019-05-19T23:06:34.023Z,5.57
2019-05-19T23:09:07.515Z,4.17
2019-05-19T23:11:38.974Z,4.97
2019-05-19T23:14:12.083Z,3.97
2019-05-19T23:16:43.537Z,6.20
2019-05-19T23:19:15.074Z,5.63
2019-05-19T23:21:46.682Z,4.37
2019-05-19T23:24:18.338Z,4.67
2019-05-19T23:26:49.774Z,6.33
2019-05-19T23:29:21.289Z,4.37
2019-05-19T23:32:06.215Z,6.20
2019-05-19T23:34:25.863Z,9.53
2019-05-19T23:36:57.382Z,9.63
2019-05-19T23:39:28.782Z,9.03
2019-05-19T23:42:00.594Z,16.37
2019-05-19T23:44:32.118Z,8.67
2019-05-19T23:47:03.673Z,10.07
2019-05-19T23:49:35.090Z,8.03
2019-05-19T23:52:06.754Z,6.43
2019-05-19T23:54:38.203Z,6.83
2019-05-19T23:57:09.649Z,7.30
2019-05-19T23:59:41.162Z,5.10
